createdAt,value
2018-03-31T00:00:46.136Z,6.39
2018-03-31T00:01:51.391Z,6.40
2018-03-31T00:02:56.635Z,6.29
2018-03-31T00:04:02.242Z,6.34
2018-03-31T00:05:07.719Z,6.42
2018-03-31T00:06:12.772Z,6.50
2018-03-31T00:07:19.896Z,6.22
2018-03-31T00:08:26.008Z,6.31
2018-03-31T00:09:36.193Z,6.30
2018-03-31T00:10:41.351Z,6.31
2018-03-31T00:11:46.455Z,6.34
2018-03-31T00:12:51.952Z,6.42
2018-03-31T00:13:57.779Z,6.33
2018-03-31T00:15:03.177Z,6.44
2018-03-31T00:16:17.242Z,6.48
2018-03-31T00:17:31.223Z,6.45
2018-03-31T00:18:36.483Z,6.45
2018-03-31T00:19:41.528Z,6.45
2018-03-31T00:20:46.802Z,6.45
2018-03-31T00:23:05.809Z,6.54
2018-03-31T00:24:14.397Z,6.48
2018-03-31T00:25:19.458Z,6.42
2018-03-31T00:26:24.148Z,6.42
2018-03-31T00:27:28.874Z,6.57
2018-03-31T00:28:33.859Z,6.48
2018-03-31T00:29:38.851Z,6.39
2018-03-31T00:30:43.873Z,6.42
2018-03-31T00:31:48.925Z,6.52
2018-03-31T00:32:53.923Z,6.48
2018-03-31T00:33:59.619Z,6.45
2018-03-31T00:35:05.227Z,6.50
2018-03-31T00:36:10.516Z,6.55
2018-03-31T00:37:20.444Z,6.65
2018-03-31T00:38:25.476Z,6.56
2018-03-31T00:39:30.283Z,6.61
2018-03-31T00:40:35.330Z,6.57
2018-03-31T00:41:40.479Z,6.65
2018-03-31T00:42:46.821Z,6.48
2018-03-31T00:43:53.058Z,6.50
2018-03-31T00:44:58.058Z,6.46
2018-03-31T00:46:03.164Z,6.41
2018-03-31T00:47:07.922Z,6.38
2018-03-31T00:48:12.674Z,6.35
2018-03-31T00:49:17.446Z,6.34
2018-03-31T00:50:25.508Z,6.29
2018-03-31T00:51:30.786Z,6.41
2018-03-31T00:52:36.602Z,6.39
2018-03-31T00:53:41.942Z,6.42
2018-03-31T00:54:47.001Z,6.42
2018-03-31T00:55:52.015Z,6.50
2018-03-31T00:56:56.749Z,6.39
2018-03-31T00:58:02.409Z,6.37
2018-03-31T00:59:07.473Z,6.45
2018-03-31T01:00:12.533Z,6.30
2018-03-31T01:01:17.590Z,6.33
2018-03-31T01:02:22.628Z,6.46
2018-03-31T01:03:27.895Z,6.46
2018-03-31T01:04:32.934Z,6.40
2018-03-31T01:05:37.980Z,6.27
2018-03-31T01:06:42.981Z,6.39
2018-03-31T01:07:48.002Z,6.43
2018-03-31T01:08:53.048Z,6.46
2018-03-31T01:09:58.058Z,6.46
2018-03-31T01:11:05.078Z,6.45
2018-03-31T01:12:10.097Z,6.54
2018-03-31T01:13:14.787Z,6.54
2018-03-31T01:14:19.795Z,6.62
2018-03-31T01:15:26.758Z,6.45
2018-03-31T01:16:32.256Z,6.51
2018-03-31T01:17:37.298Z,6.47
2018-03-31T01:18:42.269Z,6.49
2018-03-31T01:19:47.020Z,6.55
2018-03-31T01:20:51.789Z,6.48
2018-03-31T01:21:56.774Z,6.53
2018-03-31T01:23:05.404Z,6.47
2018-03-31T01:24:10.119Z,6.33
2018-03-31T01:25:15.609Z,6.41
2018-03-31T01:26:20.892Z,6.33
2018-03-31T01:27:25.893Z,6.37
2018-03-31T01:28:30.586Z,6.29
2018-03-31T01:29:35.319Z,6.28
2018-03-31T01:30:40.633Z,6.18
2018-03-31T01:31:45.356Z,6.32
2018-03-31T01:32:50.072Z,6.28
2018-03-31T01:33:55.072Z,6.29
2018-03-31T01:34:59.872Z,6.30
2018-03-31T01:36:05.579Z,6.19
2018-03-31T01:37:13.797Z,6.22
2018-03-31T01:38:18.809Z,6.36
2018-03-31T01:39:23.591Z,6.25
2018-03-31T01:40:28.676Z,6.19
2018-03-31T01:41:33.670Z,6.30
2018-03-31T01:42:41.427Z,6.38
2018-03-31T01:43:48.037Z,6.25
2018-03-31T01:44:52.958Z,6.32
2018-03-31T01:45:58.054Z,6.39
2018-03-31T01:47:03.061Z,6.40
2018-03-31T01:48:07.782Z,6.43
2018-03-31T01:49:12.573Z,6.44
2018-03-31T01:50:17.565Z,6.16
2018-03-31T01:51:22.585Z,6.20
2018-03-31T01:52:32.257Z,6.27
2018-03-31T01:53:36.961Z,6.21
2018-03-31T01:54:41.696Z,6.21
2018-03-31T01:55:46.413Z,6.29
2018-03-31T01:56:51.450Z,6.26
2018-03-31T01:57:56.564Z,6.37
2018-03-31T01:59:01.924Z,6.45
2018-03-31T02:00:12.934Z,6.29
2018-03-31T02:01:17.938Z,6.39
2018-03-31T02:02:22.965Z,6.47
2018-03-31T02:03:27.967Z,6.48
2018-03-31T02:04:32.759Z,6.34
2018-03-31T02:05:37.488Z,6.28
2018-03-31T02:06:42.267Z,6.32
2018-03-31T02:07:47.303Z,6.12
2018-03-31T02:08:52.001Z,6.23
2018-03-31T02:09:58.970Z,6.17
2018-03-31T02:11:03.700Z,6.27
2018-03-31T02:12:08.476Z,6.20
2018-03-31T02:13:13.221Z,6.19
2018-03-31T02:14:18.298Z,6.13
2018-03-31T02:15:23.032Z,6.15
2018-03-31T02:16:27.789Z,6.05
2018-03-31T02:17:32.530Z,6.14
2018-03-31T02:18:37.229Z,6.15
2018-03-31T02:19:44.145Z,6.21
2018-03-31T02:20:52.200Z,6.21
2018-03-31T02:21:56.912Z,6.22
2018-03-31T02:23:04.928Z,6.30
2018-03-31T02:24:09.963Z,6.22
2018-03-31T02:25:14.506Z,6.23
2018-03-31T02:26:19.536Z,6.29
2018-03-31T02:27:24.836Z,6.32
2018-03-31T02:28:29.972Z,6.24
2018-03-31T02:29:34.979Z,6.23
2018-03-31T02:30:39.748Z,6.16
2018-03-31T02:31:52.529Z,6.19
2018-03-31T02:33:02.629Z,6.00
2018-03-31T02:34:13.447Z,6.04
2018-03-31T02:35:20.006Z,6.05
2018-03-31T02:36:25.041Z,6.17
2018-03-31T02:37:29.752Z,6.21
2018-03-31T02:38:34.751Z,6.18
2018-03-31T02:39:39.778Z,6.17
2018-03-31T02:40:44.606Z,6.12
2018-03-31T02:41:53.048Z,6.07
2018-03-31T02:42:58.034Z,5.94
2018-03-31T02:44:03.048Z,6.09
2018-03-31T02:45:07.808Z,5.99
2018-03-31T02:46:12.569Z,6.03
2018-03-31T02:47:17.559Z,6.04
2018-03-31T02:48:22.583Z,5.95
2018-03-31T02:49:28.128Z,5.93
2018-03-31T02:50:33.307Z,5.88
2018-03-31T02:51:38.328Z,5.90
2018-03-31T02:52:43.392Z,5.74
2018-03-31T02:53:48.130Z,5.75
2018-03-31T02:54:53.117Z,5.86
2018-03-31T02:55:58.088Z,5.79
2018-03-31T02:57:03.100Z,5.74
2018-03-31T02:58:13.913Z,5.66
2018-03-31T02:59:19.941Z,5.54
2018-03-31T03:00:24.662Z,5.64
2018-03-31T03:01:29.415Z,5.72
2018-03-31T03:02:34.188Z,5.62
2018-03-31T03:03:38.908Z,5.64
2018-03-31T03:04:43.678Z,5.58
2018-03-31T03:05:48.205Z,5.57
2018-03-31T03:06:53.243Z,5.48
2018-03-31T03:07:58.282Z,5.55
2018-03-31T03:09:06.752Z,5.57
2018-03-31T03:10:12.645Z,5.62
2018-03-31T03:11:17.704Z,5.57
2018-03-31T03:12:23.028Z,5.43
2018-03-31T03:13:34.840Z,5.45
2018-03-31T03:14:43.270Z,5.54
2018-03-31T03:15:49.585Z,5.37
2018-03-31T03:16:54.044Z,5.39
2018-03-31T03:17:58.488Z,5.48
2018-03-31T03:19:07.921Z,5.46
2018-03-31T03:20:12.392Z,5.38
2018-03-31T03:21:24.369Z,5.40
2018-03-31T03:22:29.468Z,5.26
2018-03-31T03:23:33.922Z,5.28
2018-03-31T03:24:38.417Z,5.20
2018-03-31T03:25:42.941Z,5.15
2018-03-31T03:26:47.411Z,5.32
2018-03-31T03:27:51.893Z,5.31
2018-03-31T03:28:57.355Z,5.37
2018-03-31T03:30:01.806Z,5.43
2018-03-31T03:31:06.301Z,5.43
2018-03-31T03:32:10.773Z,5.45
2018-03-31T03:33:15.346Z,5.20
2018-03-31T03:34:19.788Z,5.23
2018-03-31T03:35:24.245Z,5.17
2018-03-31T03:36:28.750Z,5.12
2018-03-31T03:37:33.172Z,5.02
2018-03-31T03:38:37.658Z,5.10
2018-03-31T03:39:42.148Z,5.00
2018-03-31T03:40:46.604Z,4.99
2018-03-31T03:41:51.191Z,5.03
2018-03-31T03:43:00.606Z,5.14
2018-03-31T03:44:05.087Z,4.95
2018-03-31T03:45:09.601Z,4.95
2018-03-31T03:46:14.046Z,4.97
2018-03-31T03:47:18.535Z,4.90
2018-03-31T03:48:33.985Z,4.76
2018-03-31T03:49:38.476Z,4.88
2018-03-31T03:50:42.995Z,4.94
2018-03-31T03:51:47.455Z,4.88
2018-03-31T03:52:56.875Z,4.95
2018-03-31T03:54:01.365Z,4.98
2018-03-31T03:55:05.840Z,4.97
2018-03-31T03:56:10.283Z,4.99
2018-03-31T03:57:14.733Z,5.03
2018-03-31T03:58:19.225Z,4.75
2018-03-31T03:59:23.680Z,4.94
2018-03-31T04:00:28.144Z,5.04
2018-03-31T04:01:32.697Z,4.85
2018-03-31T04:02:38.699Z,4.83
2018-03-31T04:03:48.476Z,5.03
2018-03-31T04:04:57.986Z,4.85
2018-03-31T04:06:02.457Z,4.94
2018-03-31T04:07:06.933Z,4.93
2018-03-31T04:08:11.120Z,4.91
2018-03-31T04:09:15.373Z,4.91
2018-03-31T04:10:19.835Z,4.98
2018-03-31T04:11:24.267Z,5.10
2018-03-31T04:12:28.758Z,4.94
2018-03-31T04:13:33.274Z,5.00
2018-03-31T04:14:37.711Z,4.92
2018-03-31T04:15:42.155Z,5.01
2018-03-31T04:16:46.572Z,5.08
2018-03-31T04:17:51.034Z,5.13
2018-03-31T04:18:57.309Z,5.11
2018-03-31T04:20:01.785Z,5.21
2018-03-31T04:21:06.452Z,5.07
2018-03-31T04:22:16.405Z,5.19
2018-03-31T04:23:30.952Z,5.10
2018-03-31T04:24:37.842Z,5.04
2018-03-31T04:25:42.381Z,5.12
2018-03-31T04:26:47.277Z,5.17
2018-03-31T04:27:51.781Z,5.13
2018-03-31T04:28:56.565Z,5.05
2018-03-31T04:30:01.633Z,5.18
2018-03-31T04:31:06.808Z,5.02
2018-03-31T04:32:11.609Z,5.07
2018-03-31T04:33:16.257Z,4.85
2018-03-31T04:34:20.712Z,4.88
2018-03-31T04:35:25.480Z,5.00
2018-03-31T04:36:29.914Z,4.89
2018-03-31T04:37:34.361Z,4.93
2018-03-31T04:38:38.991Z,5.00
2018-03-31T04:39:44.632Z,5.00
2018-03-31T04:40:49.199Z,4.93
2018-03-31T04:41:53.856Z,4.99
2018-03-31T04:42:58.374Z,4.89
2018-03-31T04:44:02.980Z,4.85
2018-03-31T04:45:07.429Z,4.82
2018-03-31T04:46:11.894Z,4.91
2018-03-31T04:47:16.378Z,4.60
2018-03-31T04:48:20.877Z,4.74
2018-03-31T04:49:25.491Z,4.82
2018-03-31T04:50:29.705Z,4.87
2018-03-31T04:51:33.904Z,4.99
2018-03-31T04:52:43.533Z,4.97
2018-03-31T04:53:47.835Z,4.92
2018-03-31T04:54:52.275Z,4.92
2018-03-31T04:55:56.729Z,5.03
2018-03-31T04:57:01.171Z,5.06
2018-03-31T04:58:05.639Z,5.02
2018-03-31T04:59:10.277Z,5.01
2018-03-31T05:00:14.743Z,5.04
2018-03-31T05:01:19.400Z,4.95
2018-03-31T05:02:24.204Z,5.00
2018-03-31T05:03:33.982Z,4.98
2018-03-31T05:04:38.231Z,4.76
2018-03-31T05:05:43.015Z,4.69
2018-03-31T05:06:47.620Z,4.79
2018-03-31T05:07:56.385Z,4.80
2018-03-31T05:09:01.132Z,4.87
2018-03-31T05:10:05.349Z,5.01
2018-03-31T05:11:10.009Z,5.08
2018-03-31T05:12:19.708Z,4.96
2018-03-31T05:13:24.257Z,4.89
2018-03-31T05:14:29.248Z,4.96
2018-03-31T05:15:34.103Z,4.92
2018-03-31T05:16:38.894Z,4.76
2018-03-31T05:17:43.885Z,4.74
2018-03-31T05:19:08.773Z,4.68
2018-03-31T05:20:13.582Z,4.71
2018-03-31T05:21:20.221Z,4.71
2018-03-31T05:22:24.678Z,4.76
2018-03-31T05:23:29.144Z,4.66
2018-03-31T05:24:33.655Z,4.69
2018-03-31T05:25:38.117Z,4.82
2018-03-31T05:26:42.612Z,4.64
2018-03-31T05:27:46.860Z,4.64
2018-03-31T05:28:51.462Z,4.76
2018-03-31T05:29:56.116Z,4.69
2018-03-31T05:31:00.548Z,4.85
2018-03-31T05:32:05.389Z,4.81
2018-03-31T05:33:09.955Z,4.91
2018-03-31T05:34:18.322Z,4.83
2018-03-31T05:35:23.051Z,4.86
2018-03-31T05:36:28.360Z,4.84
2018-03-31T05:37:32.908Z,4.89
2018-03-31T05:38:37.771Z,4.81
2018-03-31T05:39:42.631Z,5.00
2018-03-31T05:40:47.766Z,4.90
2018-03-31T05:41:52.525Z,4.89
2018-03-31T05:42:56.992Z,4.76
2018-03-31T05:44:01.478Z,4.62
2018-03-31T05:45:05.960Z,4.67
2018-03-31T05:46:14.762Z,4.76
2018-03-31T05:47:21.721Z,4.66
2018-03-31T05:48:26.186Z,4.74
2018-03-31T05:49:30.829Z,4.85
2018-03-31T05:50:35.556Z,4.90
2018-03-31T05:51:40.049Z,4.94
2018-03-31T05:52:47.844Z,4.89
2018-03-31T05:53:52.093Z,4.96
2018-03-31T05:54:56.952Z,5.00
2018-03-31T05:56:01.465Z,5.01
2018-03-31T05:57:05.898Z,4.91
2018-03-31T05:58:10.450Z,4.97
2018-03-31T05:59:14.906Z,5.00
2018-03-31T06:00:19.367Z,5.07
2018-03-31T06:01:23.856Z,5.18
2018-03-31T06:02:33.392Z,5.19
2018-03-31T06:03:37.869Z,5.15
2018-03-31T06:04:42.596Z,5.18
2018-03-31T06:05:47.056Z,5.16
2018-03-31T06:06:51.519Z,5.22
2018-03-31T06:07:59.840Z,5.22
2018-03-31T06:09:04.052Z,5.05
2018-03-31T06:10:08.529Z,5.04
2018-03-31T06:11:13.010Z,5.11
2018-03-31T06:12:22.660Z,4.98
2018-03-31T06:13:27.264Z,4.99
2018-03-31T06:14:31.712Z,5.03
2018-03-31T06:15:36.156Z,5.17
2018-03-31T06:16:44.651Z,5.26
2018-03-31T06:17:50.355Z,5.39
2018-03-31T06:18:54.835Z,5.33
2018-03-31T06:19:59.289Z,5.33
2018-03-31T06:21:03.760Z,5.30
2018-03-31T06:22:08.199Z,5.32
2018-03-31T06:23:17.943Z,5.25
2018-03-31T06:24:28.199Z,5.35
2018-03-31T06:25:32.656Z,5.19
2018-03-31T06:26:37.197Z,5.20
2018-03-31T06:27:41.697Z,5.25
2018-03-31T06:28:46.168Z,5.27
2018-03-31T06:29:50.579Z,5.33
2018-03-31T06:30:57.938Z,5.38
2018-03-31T06:32:04.824Z,5.40
2018-03-31T06:33:10.224Z,5.42
2018-03-31T06:34:15.435Z,5.32
2018-03-31T06:35:20.351Z,5.35
2018-03-31T06:36:26.186Z,5.47
2018-03-31T06:37:31.675Z,5.51
2018-03-31T06:38:36.659Z,5.41
2018-03-31T06:39:42.714Z,5.25
2018-03-31T06:40:47.581Z,5.30
2018-03-31T06:41:52.304Z,5.25
2018-03-31T06:42:57.126Z,5.11
2018-03-31T06:44:06.880Z,5.12
2018-03-31T06:45:12.111Z,5.15
2018-03-31T06:46:16.940Z,5.09
2018-03-31T06:47:21.419Z,5.09
2018-03-31T06:48:25.866Z,5.13
2018-03-31T06:49:30.185Z,5.32
2018-03-31T06:50:41.091Z,5.36
2018-03-31T06:51:45.720Z,5.33
2018-03-31T06:52:50.524Z,5.30
2018-03-31T06:53:56.287Z,5.33
2018-03-31T06:55:01.521Z,5.38
2018-03-31T06:56:06.869Z,5.37
2018-03-31T06:57:11.819Z,5.41
2018-03-31T06:58:17.486Z,5.46
2018-03-31T06:59:25.795Z,5.44
2018-03-31T07:00:30.784Z,5.38
2018-03-31T07:01:35.747Z,5.40
2018-03-31T07:02:40.827Z,5.36
2018-03-31T07:03:45.994Z,5.38
2018-03-31T07:04:51.652Z,5.33
2018-03-31T07:05:56.988Z,5.36
2018-03-31T07:07:01.940Z,5.45
2018-03-31T07:08:08.073Z,5.14
2018-03-31T07:09:13.519Z,5.17
2018-03-31T07:10:19.928Z,5.21
2018-03-31T07:11:28.768Z,5.24
2018-03-31T07:12:33.863Z,5.16
2018-03-31T07:13:38.919Z,5.14
2018-03-31T07:14:43.758Z,5.05
2018-03-31T07:15:48.645Z,5.12
2018-03-31T07:16:53.798Z,5.18
2018-03-31T07:17:59.987Z,5.16
2018-03-31T07:19:04.957Z,5.24
2018-03-31T07:20:09.602Z,5.17
2018-03-31T07:21:14.625Z,5.16
2018-03-31T07:22:22.298Z,5.08
2018-03-31T07:23:27.207Z,5.11
2018-03-31T07:24:32.356Z,5.11
2018-03-31T07:25:37.205Z,5.13
2018-03-31T07:26:46.740Z,5.13
2018-03-31T07:27:52.101Z,5.12
2018-03-31T07:28:57.347Z,5.15
2018-03-31T07:30:02.288Z,5.30
2018-03-31T07:31:07.310Z,5.23
2018-03-31T07:32:14.296Z,5.20
2018-03-31T07:33:22.412Z,5.24
2018-03-31T07:34:27.606Z,5.11
2018-03-31T07:35:32.630Z,5.11
2018-03-31T07:36:38.596Z,5.10
2018-03-31T07:37:46.597Z,4.97
2018-03-31T07:38:53.843Z,5.03
2018-03-31T07:39:58.951Z,4.99
2018-03-31T07:41:03.981Z,5.01
2018-03-31T07:42:08.617Z,5.08
2018-03-31T07:43:13.400Z,5.13
2018-03-31T07:44:22.334Z,5.25
2018-03-31T07:45:26.801Z,5.30
2018-03-31T07:46:31.983Z,5.24
2018-03-31T07:47:37.717Z,5.13
2018-03-31T07:48:42.625Z,5.23
2018-03-31T07:49:47.075Z,5.19
2018-03-31T07:50:51.805Z,5.16
2018-03-31T07:51:56.252Z,5.28
2018-03-31T07:53:00.712Z,5.28
2018-03-31T07:54:05.181Z,5.27
2018-03-31T07:55:09.641Z,5.16
2018-03-31T07:56:14.220Z,5.10
2018-03-31T07:57:18.697Z,4.99
2018-03-31T07:58:23.152Z,4.98
2018-03-31T07:59:27.631Z,4.96
2018-03-31T08:00:32.102Z,4.92
2018-03-31T08:01:36.685Z,4.93
2018-03-31T08:02:41.178Z,4.93
2018-03-31T08:03:45.659Z,4.82
2018-03-31T08:04:50.169Z,4.83
2018-03-31T08:05:54.669Z,4.85
2018-03-31T08:06:59.448Z,4.88
2018-03-31T08:08:06.802Z,4.81
2018-03-31T08:09:11.251Z,4.83
2018-03-31T08:10:15.755Z,4.79
2018-03-31T08:11:20.273Z,4.71
2018-03-31T08:12:24.796Z,4.59
2018-03-31T08:13:29.296Z,4.68
2018-03-31T08:14:33.752Z,4.61
2018-03-31T08:15:38.265Z,4.63
2018-03-31T08:16:42.760Z,4.64
2018-03-31T08:17:47.508Z,4.66
2018-03-31T08:18:52.002Z,4.74
2018-03-31T08:19:56.867Z,4.87
2018-03-31T08:21:01.441Z,4.95
2018-03-31T08:22:05.912Z,4.98
2018-03-31T08:23:13.847Z,5.00
2018-03-31T08:24:18.347Z,5.03
2018-03-31T08:25:22.890Z,5.00
2018-03-31T08:26:27.449Z,5.05
2018-03-31T08:27:31.931Z,5.19
2018-03-31T08:28:36.405Z,5.21
2018-03-31T08:29:40.988Z,5.12
2018-03-31T08:30:45.498Z,5.07
2018-03-31T08:31:49.985Z,5.10
2018-03-31T08:32:54.517Z,5.14
2018-03-31T08:33:58.992Z,5.24
2018-03-31T08:35:03.474Z,5.30
2018-03-31T08:36:12.868Z,5.32
2018-03-31T08:37:20.714Z,5.34
2018-03-31T08:38:25.546Z,5.29
2018-03-31T08:39:30.054Z,5.32
2018-03-31T08:40:34.613Z,5.32
2018-03-31T08:41:39.118Z,5.30
2018-03-31T08:42:43.589Z,5.24
2018-03-31T08:43:48.231Z,5.23
2018-03-31T08:44:52.748Z,5.29
2018-03-31T08:45:57.261Z,5.27
2018-03-31T08:47:07.300Z,5.29
2018-03-31T08:48:11.998Z,5.33
2018-03-31T08:49:16.459Z,5.27
2018-03-31T08:50:20.994Z,5.38
2018-03-31T08:51:28.961Z,5.31
2018-03-31T08:52:33.529Z,5.27
2018-03-31T08:53:38.053Z,5.31
2018-03-31T08:54:42.556Z,5.26
2018-03-31T08:55:55.577Z,5.21
2018-03-31T08:57:04.026Z,5.18
2018-03-31T08:58:10.939Z,5.22
2018-03-31T08:59:15.762Z,5.27
2018-03-31T09:00:21.150Z,5.30
2018-03-31T09:01:25.709Z,5.36
2018-03-31T09:02:30.216Z,5.38
2018-03-31T09:03:34.934Z,5.25
2018-03-31T09:04:39.618Z,5.21
2018-03-31T09:05:44.102Z,5.20
2018-03-31T09:06:48.654Z,5.28
2018-03-31T09:07:53.185Z,5.27
2018-03-31T09:08:57.660Z,5.28
2018-03-31T09:10:02.172Z,5.28
2018-03-31T09:11:06.678Z,5.29
2018-03-31T09:12:11.186Z,5.17
2018-03-31T09:13:15.684Z,5.10
2018-03-31T09:14:23.970Z,5.20
2018-03-31T09:15:28.475Z,5.20
2018-03-31T09:16:32.964Z,5.27
2018-03-31T09:17:37.473Z,5.27
2018-03-31T09:18:42.420Z,5.23
2018-03-31T09:19:48.467Z,5.28
2018-03-31T09:20:52.938Z,5.26
2018-03-31T09:21:57.258Z,5.24
2018-03-31T09:23:01.842Z,5.22
2018-03-31T09:24:06.323Z,5.26
2018-03-31T09:25:15.907Z,5.40
2018-03-31T09:26:25.535Z,5.31
2018-03-31T09:27:30.097Z,5.42
2018-03-31T09:28:34.939Z,5.43
2018-03-31T09:29:39.435Z,5.45
2018-03-31T09:30:43.952Z,5.39
2018-03-31T09:31:48.420Z,5.33
2018-03-31T09:32:52.977Z,5.34
2018-03-31T09:33:58.015Z,5.34
2018-03-31T09:35:02.565Z,5.39
2018-03-31T09:36:07.083Z,5.43
2018-03-31T09:37:11.609Z,5.45
2018-03-31T09:38:16.140Z,5.45
2018-03-31T09:39:20.660Z,5.50
2018-03-31T09:40:27.365Z,5.50
2018-03-31T09:41:31.913Z,5.41
2018-03-31T09:42:36.434Z,5.39
2018-03-31T09:43:40.999Z,5.35
2018-03-31T09:44:45.553Z,5.43
2018-03-31T09:45:51.161Z,5.44
2018-03-31T09:46:55.660Z,5.41
2018-03-31T09:48:01.338Z,5.38
2018-03-31T09:49:05.856Z,5.42
2018-03-31T09:50:10.376Z,5.43
2018-03-31T09:51:14.881Z,5.49
2018-03-31T09:52:19.453Z,5.61
2018-03-31T09:53:23.957Z,5.53
2018-03-31T09:54:28.459Z,5.57
2018-03-31T09:55:32.946Z,5.64
2018-03-31T09:56:37.541Z,5.66
2018-03-31T09:57:42.035Z,5.76
2018-03-31T09:58:46.613Z,5.79
2018-03-31T09:59:51.150Z,5.78
2018-03-31T10:01:02.339Z,5.75
2018-03-31T10:02:07.013Z,5.70
2018-03-31T10:03:11.660Z,5.72
2018-03-31T10:04:16.163Z,5.65
2018-03-31T10:05:20.628Z,5.68
2018-03-31T10:06:25.153Z,5.76
2018-03-31T10:07:29.661Z,5.70
2018-03-31T10:08:34.436Z,5.62
2018-03-31T10:09:38.956Z,5.52
2018-03-31T10:10:43.485Z,5.55
2018-03-31T10:11:48.048Z,5.58
2018-03-31T10:12:52.586Z,5.53
2018-03-31T10:13:57.120Z,5.54
2018-03-31T10:15:01.647Z,5.51
2018-03-31T10:16:06.147Z,5.66
2018-03-31T10:17:10.670Z,5.66
2018-03-31T10:18:15.194Z,5.65
2018-03-31T10:19:19.706Z,5.68
2018-03-31T10:20:24.228Z,5.63
2018-03-31T10:21:28.718Z,5.82
2018-03-31T10:22:33.263Z,5.72
2018-03-31T10:23:37.963Z,5.67
2018-03-31T10:24:47.778Z,5.63
2018-03-31T10:25:52.261Z,5.66
2018-03-31T10:26:57.178Z,5.62
2018-03-31T10:28:01.709Z,5.61
2018-03-31T10:29:06.188Z,5.52
2018-03-31T10:30:10.702Z,5.59
2018-03-31T10:31:15.238Z,5.70
2018-03-31T10:32:19.757Z,5.72
2018-03-31T10:33:36.214Z,5.69
2018-03-31T10:34:40.787Z,5.55
2018-03-31T10:35:45.357Z,5.50
2018-03-31T10:36:49.909Z,5.57
2018-03-31T10:37:59.496Z,5.63
2018-03-31T10:39:03.831Z,5.59
2018-03-31T10:40:08.313Z,5.62
2018-03-31T10:41:12.827Z,5.74
2018-03-31T10:42:17.353Z,5.78
2018-03-31T10:43:22.157Z,5.76
2018-03-31T10:44:26.747Z,5.79
2018-03-31T10:45:36.429Z,5.84
2018-03-31T10:46:41.612Z,5.75
2018-03-31T10:47:46.139Z,5.62
2018-03-31T10:48:50.661Z,5.73
2018-03-31T10:49:55.211Z,5.78
2018-03-31T10:50:59.694Z,5.75
2018-03-31T10:52:04.329Z,5.66
2018-03-31T10:53:08.832Z,5.75
2018-03-31T10:54:13.686Z,5.87
2018-03-31T10:55:23.516Z,5.87
2018-03-31T10:56:29.080Z,5.98
2018-03-31T10:57:33.581Z,6.00
2018-03-31T10:58:38.182Z,6.05
2018-03-31T10:59:42.752Z,6.06
2018-03-31T11:00:47.298Z,6.04
2018-03-31T11:01:51.885Z,6.03
2018-03-31T11:03:02.311Z,6.07
2018-03-31T11:04:07.423Z,6.03
2018-03-31T11:05:11.932Z,6.10
2018-03-31T11:06:17.446Z,6.11
2018-03-31T11:07:22.100Z,6.15
2018-03-31T11:08:36.201Z,6.21
2018-03-31T11:09:40.772Z,6.17
2018-03-31T11:10:45.275Z,6.20
2018-03-31T11:11:49.854Z,6.10
2018-03-31T11:12:54.449Z,6.11
2018-03-31T11:13:59.265Z,6.22
2018-03-31T11:15:03.779Z,6.24
2018-03-31T11:16:08.312Z,6.07
2018-03-31T11:17:12.884Z,5.95
2018-03-31T11:18:17.431Z,5.92
2018-03-31T11:19:24.523Z,5.67
2018-03-31T11:20:29.012Z,5.73
2018-03-31T11:21:33.537Z,5.69
2018-03-31T11:22:38.078Z,5.76
2018-03-31T11:23:46.830Z,5.73
2018-03-31T11:24:51.569Z,5.73
2018-03-31T11:25:56.116Z,5.54
2018-03-31T11:27:00.641Z,5.52
2018-03-31T11:28:05.666Z,5.54
2018-03-31T11:29:11.066Z,5.50
2018-03-31T11:30:21.048Z,5.62
2018-03-31T11:31:32.006Z,5.61
2018-03-31T11:32:36.502Z,5.56
2018-03-31T11:33:41.020Z,5.60
2018-03-31T11:34:45.566Z,5.60
2018-03-31T11:35:50.380Z,5.63
2018-03-31T11:37:00.196Z,5.69
2018-03-31T11:38:04.680Z,5.68
2018-03-31T11:39:09.208Z,5.75
2018-03-31T11:40:14.122Z,5.68
2018-03-31T11:41:18.609Z,5.71
2018-03-31T11:42:23.152Z,5.71
2018-03-31T11:43:27.663Z,5.72
2018-03-31T11:44:32.271Z,5.68
2018-03-31T11:45:37.028Z,5.75
2018-03-31T11:46:41.605Z,5.81
2018-03-31T11:47:46.136Z,5.84
2018-03-31T11:48:54.605Z,5.89
2018-03-31T11:50:04.588Z,5.84
2018-03-31T11:51:09.717Z,5.82
2018-03-31T11:52:15.125Z,5.68
2018-03-31T11:53:19.945Z,5.63
2018-03-31T11:54:25.029Z,5.65
2018-03-31T11:55:29.728Z,5.69
2018-03-31T11:56:34.509Z,5.58
2018-03-31T11:57:40.273Z,5.58
2018-03-31T11:58:44.801Z,5.49
2018-03-31T11:59:55.233Z,5.49
2018-03-31T12:01:00.542Z,5.55
2018-03-31T12:02:05.029Z,5.47
2018-03-31T12:03:09.640Z,5.43
2018-03-31T12:04:14.207Z,5.56
2018-03-31T12:05:19.240Z,5.40
2018-03-31T12:06:26.642Z,5.45
2018-03-31T12:07:31.170Z,5.49
2018-03-31T12:08:35.694Z,5.37
2018-03-31T12:09:40.336Z,5.44
2018-03-31T12:10:44.895Z,5.47
2018-03-31T12:11:49.156Z,5.48
2018-03-31T12:12:53.664Z,5.50
2018-03-31T12:13:58.384Z,5.43
2018-03-31T12:15:02.896Z,5.42
2018-03-31T12:16:07.596Z,5.43
2018-03-31T12:17:16.202Z,5.36
2018-03-31T12:18:20.741Z,5.38
2018-03-31T12:19:25.229Z,5.37
2018-03-31T12:20:32.704Z,5.35
2018-03-31T12:21:37.246Z,5.47
2018-03-31T12:22:41.913Z,5.47
2018-03-31T12:23:51.402Z,5.37
2018-03-31T12:24:55.940Z,5.50
2018-03-31T12:26:00.494Z,5.44
2018-03-31T12:27:05.072Z,5.41
2018-03-31T12:28:10.086Z,5.47
2018-03-31T12:29:15.578Z,5.42
2018-03-31T12:30:20.707Z,5.33
2018-03-31T12:31:26.031Z,5.26
2018-03-31T12:32:31.161Z,5.40
2018-03-31T12:33:38.355Z,5.36
2018-03-31T12:34:43.836Z,5.49
2018-03-31T12:35:48.835Z,5.44
2018-03-31T12:36:54.131Z,5.56
2018-03-31T12:37:59.319Z,5.52
2018-03-31T12:39:04.841Z,5.55
2018-03-31T12:40:10.105Z,5.54
2018-03-31T12:41:15.305Z,5.53
2018-03-31T12:42:20.733Z,5.50
2018-03-31T12:43:26.141Z,5.46
2018-03-31T12:44:31.249Z,5.47
2018-03-31T12:56:26.587Z,5.55
2018-03-31T12:57:38.513Z,5.58
2018-03-31T12:58:43.902Z,5.61
2018-03-31T12:59:48.811Z,5.53
2018-03-31T13:00:54.056Z,5.40
2018-03-31T13:02:03.206Z,5.39
2018-03-31T13:03:09.465Z,5.49
2018-03-31T13:04:15.379Z,5.64
2018-03-31T13:05:20.695Z,5.54
2018-03-31T13:06:25.706Z,5.57
2018-03-31T13:07:31.417Z,5.59
2018-03-31T13:08:36.742Z,5.56
2018-03-31T13:09:41.927Z,5.59
2018-03-31T13:10:46.915Z,5.64
2018-03-31T13:11:52.040Z,5.76
2018-03-31T13:13:02.254Z,5.76
2018-03-31T13:14:09.500Z,5.77
2018-03-31T13:15:15.440Z,5.81
2018-03-31T13:16:20.641Z,5.93
2018-03-31T13:17:26.600Z,6.01
2018-03-31T13:18:31.394Z,6.00
2018-03-31T13:19:36.125Z,6.00
2018-03-31T13:20:41.611Z,6.05
2018-03-31T13:21:47.315Z,5.97
2018-03-31T13:22:52.329Z,6.02
2018-03-31T13:23:57.371Z,6.00
2018-03-31T13:25:02.087Z,5.95
2018-03-31T13:26:14.087Z,6.00
2018-03-31T13:27:18.597Z,6.09
2018-03-31T13:28:23.341Z,6.09
2018-03-31T13:29:27.881Z,6.21
2018-03-31T13:30:33.444Z,6.13
2018-03-31T13:31:38.874Z,6.03
2018-03-31T13:32:43.457Z,6.08
2018-03-31T13:33:48.000Z,6.04
2018-03-31T13:35:01.624Z,6.09
2018-03-31T13:36:06.333Z,6.09
2018-03-31T13:37:10.891Z,6.10
2018-03-31T13:38:15.398Z,6.17
2018-03-31T13:39:19.906Z,6.19
2018-03-31T13:40:24.431Z,6.25
2018-03-31T13:41:33.968Z,6.30
2018-03-31T13:42:38.479Z,6.21
2018-03-31T13:43:42.998Z,6.29
2018-03-31T13:44:48.839Z,6.27
2018-03-31T13:45:53.325Z,6.33
2018-03-31T13:46:57.842Z,6.41
2018-03-31T13:48:02.347Z,6.34
2018-03-31T13:49:06.849Z,6.39
2018-03-31T13:50:11.418Z,6.42
2018-03-31T13:51:16.999Z,6.29
2018-03-31T13:52:21.601Z,6.32
2018-03-31T13:53:32.195Z,6.28
2018-03-31T13:54:36.741Z,6.31
2018-03-31T13:55:41.359Z,6.31
2018-03-31T13:56:45.854Z,6.13
2018-03-31T13:57:50.385Z,6.16
2018-03-31T13:58:57.508Z,6.20
2018-03-31T14:00:02.048Z,6.20
2018-03-31T14:01:06.581Z,5.98
2018-03-31T14:02:11.134Z,5.99
2018-03-31T14:03:15.753Z,6.04
2018-03-31T14:04:25.475Z,6.02
2018-03-31T14:05:34.280Z,6.12
2018-03-31T14:06:38.845Z,6.16
2018-03-31T14:07:43.440Z,6.05
2018-03-31T14:08:47.976Z,5.98
2018-03-31T14:09:52.483Z,6.05
2018-03-31T14:11:02.629Z,5.88
2018-03-31T14:12:07.142Z,5.92
2018-03-31T14:13:15.540Z,5.95
2018-03-31T14:14:20.090Z,6.00
2018-03-31T14:15:39.328Z,5.94
2018-03-31T14:16:43.884Z,5.89
2018-03-31T14:17:48.429Z,5.77
2018-03-31T14:18:52.967Z,5.82
2018-03-31T14:19:57.474Z,5.56
2018-03-31T14:21:01.989Z,5.55
2018-03-31T14:22:06.541Z,5.61
2018-03-31T14:23:11.066Z,5.68
2018-03-31T14:24:15.566Z,5.63
2018-03-31T14:25:23.969Z,5.61
2018-03-31T14:26:28.708Z,5.64
2018-03-31T14:27:33.253Z,5.56
2018-03-31T14:28:38.056Z,5.57
2018-03-31T14:29:43.693Z,5.61
2018-03-31T14:30:48.233Z,5.60
2018-03-31T14:31:52.736Z,5.60
2018-03-31T14:32:57.250Z,5.60
2018-03-31T14:34:01.771Z,5.59
2018-03-31T14:35:06.307Z,5.65
2018-03-31T14:36:11.251Z,5.68
2018-03-31T14:37:16.040Z,5.82
2018-03-31T14:38:20.360Z,5.79
2018-03-31T14:39:24.940Z,5.68
2018-03-31T14:40:32.376Z,5.71
2018-03-31T14:41:36.910Z,5.74
2018-03-31T14:42:41.407Z,5.78
2018-03-31T14:43:45.907Z,5.70